sensor_id;sensor_type;location;lat;lon;timestamp;temperature;humidity
47336;DHT22;33068;51.990;5.926;2023-04-30T00:00:00;7.50;99.90
47336;DHT22;33068;51.990;5.926;2023-04-30T00:02:35;7.40;99.90
47336;DHT22;33068;51.990;5.926;2023-04-30T00:05:04;7.40;99.90
47336;DHT22;33068;51.990;5.926;2023-04-30T00:07:31;7.40;99.90
47336;DHT22;33068;51.990;5.926;2023-04-30T00:09:58;7.30;99.90
47336;DHT22;33068;51.990;5.926;2023-04-30T00:12:25;7.40;99.90
47336;DHT22;33068;51.990;5.926;2023-04-30T00:14:55;7.40;99.90
47336;DHT22;33068;51.990;5.926;2023-04-30T00:17:21;7.30;99.90
47336;DHT22;33068;51.990;5.926;2023-04-30T00:19:48;7.50;99.90
47336;DHT22;33068;51.990;5.926;2023-04-30T00:22:18;7.50;99.90
47336;DHT22;33068;51.990;5.926;2023-04-30T00:24:44;7.30;99.90
47336;DHT22;33068;51.990;5.926;2023-04-30T00:27:11;7.20;99.90
47336;DHT22;33068;51.990;5.926;2023-04-30T00:29:38;7.20;99.90
47336;DHT22;33068;51.990;5.926;2023-04-30T00:32:05;7.10;99.90
47336;DHT22;33068;51.990;5.926;2023-04-30T00:34:32;7.10;99.90
47336;DHT22;33068;51.990;5.926;2023-04-30T00:36:59;7.10;99.90
47336;DHT22;33068;51.990;5.926;2023-04-30T00:39:28;7.10;99.90
47336;DHT22;33068;51.990;5.926;2023-04-30T00:41:55;7.00;99.90
47336;DHT22;33068;51.990;5.926;2023-04-30T00:44:21;7.00;99.90
47336;DHT22;33068;51.990;5.926;2023-04-30T00:46:48;6.90;99.90
47336;DHT22;33068;51.990;5.926;2023-04-30T00:49:15;7.00;99.90
47336;DHT22;33068;51.990;5.926;2023-04-30T00:51:44;7.00;99.90
47336;DHT22;33068;51.990;5.926;2023-04-30T00:54:11;6.90;99.90
47336;DHT22;33068;51.990;5.926;2023-04-30T00:56:39;6.90;99.90
47336;DHT22;33068;51.990;5.926;2023-04-30T00:59:07;6.90;99.90
47336;DHT22;33068;51.990;5.926;2023-04-30T01:04:01;6.90;99.90
47336;DHT22;33068;51.990;5.926;2023-04-30T01:06:28;6.90;99.90
47336;DHT22;33068;51.990;5.926;2023-04-30T01:08:56;7.00;99.90
47336;DHT22;33068;51.990;5.926;2023-04-30T01:11:25;6.90;99.90
47336;DHT22;33068;51.990;5.926;2023-04-30T01:13:57;7.10;99.90
47336;DHT22;33068;51.990;5.926;2023-04-30T01:16:25;6.80;99.90
47336;DHT22;33068;51.990;5.926;2023-04-30T01:18:55;6.90;99.90
47336;DHT22;33068;51.990;5.926;2023-04-30T01:21:23;6.90;99.90
47336;DHT22;33068;51.990;5.926;2023-04-30T01:26:40;6.80;99.90
47336;DHT22;33068;51.990;5.926;2023-04-30T01:29:12;6.90;99.90
47336;DHT22;33068;51.990;5.926;2023-04-30T01:31:42;6.80;99.90
47336;DHT22;33068;51.990;5.926;2023-04-30T01:34:09;6.70;99.90
47336;DHT22;33068;51.990;5.926;2023-04-30T01:36:39;6.70;99.90
47336;DHT22;33068;51.990;5.926;2023-04-30T01:39:12;6.70;99.90
47336;DHT22;33068;51.990;5.926;2023-04-30T01:41:44;6.60;99.90
47336;DHT22;33068;51.990;5.926;2023-04-30T01:44:31;6.50;99.90
47336;DHT22;33068;51.990;5.926;2023-04-30T01:47:03;6.60;99.90
47336;DHT22;33068;51.990;5.926;2023-04-30T01:49:36;6.50;99.90
47336;DHT22;33068;51.990;5.926;2023-04-30T01:52:08;6.50;99.90
47336;DHT22;33068;51.990;5.926;2023-04-30T01:54:37;6.50;99.90
47336;DHT22;33068;51.990;5.926;2023-04-30T01:57:06;6.60;99.90
47336;DHT22;33068;51.990;5.926;2023-04-30T01:59:35;6.50;99.90
47336;DHT22;33068;51.990;5.926;2023-04-30T02:02:04;6.50;99.90
47336;DHT22;33068;51.990;5.926;2023-04-30T02:04:31;6.50;99.90
47336;DHT22;33068;51.990;5.926;2023-04-30T02:06:58;6.40;99.90
47336;DHT22;33068;51.990;5.926;2023-04-30T02:09:25;6.40;99.90
47336;DHT22;33068;51.990;5.926;2023-04-30T02:11:52;6.40;99.90
47336;DHT22;33068;51.990;5.926;2023-04-30T02:14:19;6.40;99.90
47336;DHT22;33068;51.990;5.926;2023-04-30T02:16:47;6.50;99.90
47336;DHT22;33068;51.990;5.926;2023-04-30T02:19:14;6.40;99.90
47336;DHT22;33068;51.990;5.926;2023-04-30T02:21:41;6.40;99.90
47336;DHT22;33068;51.990;5.926;2023-04-30T02:24:08;6.30;99.90
47336;DHT22;33068;51.990;5.926;2023-04-30T02:26:35;6.30;99.90
47336;DHT22;33068;51.990;5.926;2023-04-30T02:29:02;6.30;99.90
47336;DHT22;33068;51.990;5.926;2023-04-30T02:31:28;6.30;99.90
47336;DHT22;33068;51.990;5.926;2023-04-30T02:33:57;6.20;99.90
47336;DHT22;33068;51.990;5.926;2023-04-30T02:36:24;6.20;99.90
47336;DHT22;33068;51.990;5.926;2023-04-30T02:38:51;6.20;99.90
47336;DHT22;33068;51.990;5.926;2023-04-30T02:41:17;6.30;99.90
47336;DHT22;33068;51.990;5.926;2023-04-30T02:43:44;6.20;99.90
47336;DHT22;33068;51.990;5.926;2023-04-30T02:46:11;6.20;99.90
47336;DHT22;33068;51.990;5.926;2023-04-30T02:48:38;6.20;99.90
47336;DHT22;33068;51.990;5.926;2023-04-30T02:51:06;6.20;99.90
47336;DHT22;33068;51.990;5.926;2023-04-30T02:53:33;6.20;99.90
47336;DHT22;33068;51.990;5.926;2023-04-30T02:56:00;6.30;99.90
47336;DHT22;33068;51.990;5.926;2023-04-30T02:58:27;6.40;99.90
47336;DHT22;33068;51.990;5.926;2023-04-30T03:00:54;6.20;99.90
47336;DHT22;33068;51.990;5.926;2023-04-30T03:03:22;6.20;99.90
47336;DHT22;33068;51.990;5.926;2023-04-30T03:05:49;6.20;99.90
47336;DHT22;33068;51.990;5.926;2023-04-30T03:08:17;6.20;99.90
47336;DHT22;33068;51.990;5.926;2023-04-30T03:10:44;6.20;99.90
47336;DHT22;33068;51.990;5.926;2023-04-30T03:13:11;6.20;99.90
47336;DHT22;33068;51.990;5.926;2023-04-30T03:15:38;6.20;99.90
47336;DHT22;33068;51.990;5.926;2023-04-30T03:18:04;6.20;99.90
47336;DHT22;33068;51.990;5.926;2023-04-30T03:20:31;6.20;99.90
47336;DHT22;33068;51.990;5.926;2023-04-30T03:22:58;6.20;99.90
47336;DHT22;33068;51.990;5.926;2023-04-30T03:25:27;6.50;99.90
47336;DHT22;33068;51.990;5.926;2023-04-30T03:27:55;6.20;99.90
47336;DHT22;33068;51.990;5.926;2023-04-30T03:30:21;6.20;99.90
47336;DHT22;33068;51.990;5.926;2023-04-30T03:32:48;6.10;99.90
47336;DHT22;33068;51.990;5.926;2023-04-30T03:35:15;6.10;99.90
47336;DHT22;33068;51.990;5.926;2023-04-30T03:37:43;6.10;99.90
47336;DHT22;33068;51.990;5.926;2023-04-30T03:40:10;6.30;99.90
47336;DHT22;33068;51.990;5.926;2023-04-30T03:42:39;6.10;99.90
47336;DHT22;33068;51.990;5.926;2023-04-30T03:45:07;6.20;99.90
47336;DHT22;33068;51.990;5.926;2023-04-30T03:47:34;6.10;99.90
47336;DHT22;33068;51.990;5.926;2023-04-30T03:50:01;6.20;99.90
47336;DHT22;33068;51.990;5.926;2023-04-30T03:52:28;6.00;99.90
47336;DHT22;33068;51.990;5.926;2023-04-30T03:54:56;6.00;99.90
47336;DHT22;33068;51.990;5.926;2023-04-30T03:57:22;6.00;99.90
47336;DHT22;33068;51.990;5.926;2023-04-30T03:59:51;6.00;99.90
47336;DHT22;33068;51.990;5.926;2023-04-30T04:02:18;6.00;99.90
47336;DHT22;33068;51.990;5.926;2023-04-30T04:04:46;6.00;99.90
47336;DHT22;33068;51.990;5.926;2023-04-30T04:07:13;5.90;99.90
47336;DHT22;33068;51.990;5.926;2023-04-30T04:09:40;6.10;99.90
47336;DHT22;33068;51.990;5.926;2023-04-30T04:12:07;5.90;99.90
47336;DHT22;33068;51.990;5.926;2023-04-30T04:14:35;5.90;99.90
47336;DHT22;33068;51.990;5.926;2023-04-30T04:17:03;5.90;99.90
47336;DHT22;33068;51.990;5.926;2023-04-30T04:19:31;6.20;99.90
47336;DHT22;33068;51.990;5.926;2023-04-30T04:21:58;5.90;99.90
47336;DHT22;33068;51.990;5.926;2023-04-30T04:24:25;5.90;99.90
47336;DHT22;33068;51.990;5.926;2023-04-30T04:26:52;5.70;99.90
47336;DHT22;33068;51.990;5.926;2023-04-30T04:29:19;5.90;99.90
47336;DHT22;33068;51.990;5.926;2023-04-30T04:31:46;5.90;99.90
47336;DHT22;33068;51.990;5.926;2023-04-30T04:34:17;6.00;99.90
47336;DHT22;33068;51.990;5.926;2023-04-30T04:36:44;5.90;99.90
47336;DHT22;33068;51.990;5.926;2023-04-30T04:39:12;5.80;99.90
47336;DHT22;33068;51.990;5.926;2023-04-30T04:41:39;6.20;99.90
47336;DHT22;33068;51.990;5.926;2023-04-30T04:44:06;5.90;99.90
47336;DHT22;33068;51.990;5.926;2023-04-30T04:46:34;5.40;99.90
47336;DHT22;33068;51.990;5.926;2023-04-30T04:49:03;5.90;99.90
47336;DHT22;33068;51.990;5.926;2023-04-30T04:51:31;6.30;99.90
47336;DHT22;33068;51.990;5.926;2023-04-30T04:53:58;6.00;99.90
47336;DHT22;33068;51.990;5.926;2023-04-30T04:56:25;6.00;99.90
47336;DHT22;33068;51.990;5.926;2023-04-30T04:58:52;6.30;99.90
47336;DHT22;33068;51.990;5.926;2023-04-30T05:01:19;6.10;99.90
47336;DHT22;33068;51.990;5.926;2023-04-30T05:03:46;6.20;99.90
47336;DHT22;33068;51.990;5.926;2023-04-30T05:06:14;6.20;99.90
47336;DHT22;33068;51.990;5.926;2023-04-30T05:08:42;6.30;99.90
47336;DHT22;33068;51.990;5.926;2023-04-30T05:11:10;6.30;99.90
47336;DHT22;33068;51.990;5.926;2023-04-30T05:13:37;6.30;99.90
47336;DHT22;33068;51.990;5.926;2023-04-30T05:16:04;6.40;99.90
47336;DHT22;33068;51.990;5.926;2023-04-30T05:18:30;6.60;99.90
47336;DHT22;33068;51.990;5.926;2023-04-30T05:20:57;6.60;99.90
47336;DHT22;33068;51.990;5.926;2023-04-30T05:23:24;6.50;99.90
47336;DHT22;33068;51.990;5.926;2023-04-30T05:25:54;6.60;99.90
47336;DHT22;33068;51.990;5.926;2023-04-30T05:28:21;6.70;99.90
47336;DHT22;33068;51.990;5.926;2023-04-30T05:30:48;6.70;99.90
47336;DHT22;33068;51.990;5.926;2023-04-30T05:33:15;6.80;99.90
47336;DHT22;33068;51.990;5.926;2023-04-30T05:35:42;7.00;99.90
47336;DHT22;33068;51.990;5.926;2023-04-30T05:38:08;7.10;99.90
47336;DHT22;33068;51.990;5.926;2023-04-30T05:40:35;7.10;99.90
47336;DHT22;33068;51.990;5.926;2023-04-30T05:43:03;7.10;99.90
47336;DHT22;33068;51.990;5.926;2023-04-30T05:45:30;7.20;99.90
47336;DHT22;33068;51.990;5.926;2023-04-30T05:47:57;7.40;99.90
47336;DHT22;33068;51.990;5.926;2023-04-30T05:50:26;7.40;99.90
47336;DHT22;33068;51.990;5.926;2023-04-30T05:52:53;7.50;99.90
47336;DHT22;33068;51.990;5.926;2023-04-30T05:55:19;7.60;99.90
47336;DHT22;33068;51.990;5.926;2023-04-30T05:57:46;7.70;99.90
47336;DHT22;33068;51.990;5.926;2023-04-30T06:00:15;7.70;99.90
47336;DHT22;33068;51.990;5.926;2023-04-30T06:02:42;7.80;99.90
47336;DHT22;33068;51.990;5.926;2023-04-30T06:05:08;7.90;99.90
47336;DHT22;33068;51.990;5.926;2023-04-30T06:07:36;7.90;99.90
47336;DHT22;33068;51.990;5.926;2023-04-30T06:10:03;8.00;99.90
47336;DHT22;33068;51.990;5.926;2023-04-30T06:12:30;8.20;99.90
47336;DHT22;33068;51.990;5.926;2023-04-30T06:14:57;8.30;99.90
47336;DHT22;33068;51.990;5.926;2023-04-30T06:17:25;8.30;99.90
47336;DHT22;33068;51.990;5.926;2023-04-30T06:19:52;8.70;99.90
47336;DHT22;33068;51.990;5.926;2023-04-30T06:22:19;8.50;99.90
47336;DHT22;33068;51.990;5.926;2023-04-30T06:24:45;8.50;99.90
47336;DHT22;33068;51.990;5.926;2023-04-30T06:27:12;8.60;99.90
47336;DHT22;33068;51.990;5.926;2023-04-30T06:29:39;8.70;99.90
47336;DHT22;33068;51.990;5.926;2023-04-30T06:32:06;8.90;99.90
47336;DHT22;33068;51.990;5.926;2023-04-30T06:34:34;8.80;99.90
47336;DHT22;33068;51.990;5.926;2023-04-30T06:37:02;9.00;99.90
47336;DHT22;33068;51.990;5.926;2023-04-30T06:39:28;9.00;99.90
47336;DHT22;33068;51.990;5.926;2023-04-30T06:41:55;9.10;99.90
47336;DHT22;33068;51.990;5.926;2023-04-30T06:44:22;9.40;99.90
47336;DHT22;33068;51.990;5.926;2023-04-30T06:46:49;9.40;99.90
47336;DHT22;33068;51.990;5.926;2023-04-30T06:49:16;9.50;99.90
47336;DHT22;33068;51.990;5.926;2023-04-30T06:51:45;9.60;99.90
47336;DHT22;33068;51.990;5.926;2023-04-30T06:54:12;9.70;99.90
47336;DHT22;33068;51.990;5.926;2023-04-30T06:56:39;9.80;99.90
47336;DHT22;33068;51.990;5.926;2023-04-30T06:59:06;9.90;99.90
47336;DHT22;33068;51.990;5.926;2023-04-30T07:01:33;10.00;99.90
47336;DHT22;33068;51.990;5.926;2023-04-30T07:04:00;10.00;99.90
47336;DHT22;33068;51.990;5.926;2023-04-30T07:06:27;10.00;99.90
47336;DHT22;33068;51.990;5.926;2023-04-30T07:08:56;10.10;99.90
47336;DHT22;33068;51.990;5.926;2023-04-30T07:11:23;10.30;99.90
47336;DHT22;33068;51.990;5.926;2023-04-30T07:13:50;10.50;99.90
47336;DHT22;33068;51.990;5.926;2023-04-30T07:16:18;10.40;99.90
47336;DHT22;33068;51.990;5.926;2023-04-30T07:18:45;10.50;99.90
47336;DHT22;33068;51.990;5.926;2023-04-30T07:21:13;10.70;99.90
47336;DHT22;33068;51.990;5.926;2023-04-30T07:23:40;10.70;99.90
47336;DHT22;33068;51.990;5.926;2023-04-30T07:26:10;10.90;99.90
47336;DHT22;33068;51.990;5.926;2023-04-30T07:28:37;11.00;99.90
47336;DHT22;33068;51.990;5.926;2023-04-30T07:31:04;11.00;99.90
47336;DHT22;33068;51.990;5.926;2023-04-30T07:33:32;11.00;99.90
47336;DHT22;33068;51.990;5.926;2023-04-30T07:35:59;11.20;99.90
47336;DHT22;33068;51.990;5.926;2023-04-30T07:38:26;11.20;99.90
47336;DHT22;33068;51.990;5.926;2023-04-30T07:40:54;11.40;99.90
47336;DHT22;33068;51.990;5.926;2023-04-30T07:43:22;11.50;99.90
47336;DHT22;33068;51.990;5.926;2023-04-30T07:45:49;11.60;99.90
47336;DHT22;33068;51.990;5.926;2023-04-30T07:48:18;11.60;99.90
47336;DHT22;33068;51.990;5.926;2023-04-30T07:50:46;11.60;99.90
47336;DHT22;33068;51.990;5.926;2023-04-30T07:53:14;11.70;99.90
47336;DHT22;33068;51.990;5.926;2023-04-30T07:55:41;11.80;99.90
47336;DHT22;33068;51.990;5.926;2023-04-30T07:58:08;12.10;99.90
47336;DHT22;33068;51.990;5.926;2023-04-30T08:00:36;12.20;99.90
47336;DHT22;33068;51.990;5.926;2023-04-30T08:03:03;12.50;99.90
47336;DHT22;33068;51.990;5.926;2023-04-30T08:05:30;12.50;99.90
47336;DHT22;33068;51.990;5.926;2023-04-30T08:07:57;12.70;99.90
47336;DHT22;33068;51.990;5.926;2023-04-30T08:10:25;12.10;99.90
47336;DHT22;33068;51.990;5.926;2023-04-30T08:12:52;12.00;99.90
47336;DHT22;33068;51.990;5.926;2023-04-30T08:15:19;12.20;99.90
47336;DHT22;33068;51.990;5.926;2023-04-30T08:17:49;13.30;99.90
47336;DHT22;33068;51.990;5.926;2023-04-30T08:20:17;14.50;99.90
47336;DHT22;33068;51.990;5.926;2023-04-30T08:22:45;15.50;99.90
47336;DHT22;33068;51.990;5.926;2023-04-30T08:25:12;16.50;99.90
47336;DHT22;33068;51.990;5.926;2023-04-30T08:27:39;16.90;99.90
47336;DHT22;33068;51.990;5.926;2023-04-30T08:30:07;17.10;99.90
47336;DHT22;33068;51.990;5.926;2023-04-30T08:32:35;17.20;99.50
47336;DHT22;33068;51.990;5.926;2023-04-30T08:35:04;17.50;99.50
47336;DHT22;33068;51.990;5.926;2023-04-30T08:37:31;17.20;98.80
47336;DHT22;33068;51.990;5.926;2023-04-30T08:39:59;16.70;99.90
47336;DHT22;33068;51.990;5.926;2023-04-30T08:42:30;16.80;99.70
47336;DHT22;33068;51.990;5.926;2023-04-30T08:44:59;16.50;99.50
47336;DHT22;33068;51.990;5.926;2023-04-30T08:47:28;16.40;99.00
47336;DHT22;33068;51.990;5.926;2023-04-30T08:49:55;16.00;99.90
47336;DHT22;33068;51.990;5.926;2023-04-30T08:52:24;16.10;99.60
47336;DHT22;33068;51.990;5.926;2023-04-30T08:54:53;16.00;99.90
47336;DHT22;33068;51.990;5.926;2023-04-30T08:57:20;16.10;99.90
47336;DHT22;33068;51.990;5.926;2023-04-30T08:59:47;16.10;99.90
47336;DHT22;33068;51.990;5.926;2023-04-30T09:02:14;15.80;99.90
47336;DHT22;33068;51.990;5.926;2023-04-30T09:04:42;15.90;99.90
47336;DHT22;33068;51.990;5.926;2023-04-30T09:07:09;16.10;99.90
47336;DHT22;33068;51.990;5.926;2023-04-30T09:09:40;15.80;99.20
47336;DHT22;33068;51.990;5.926;2023-04-30T09:12:12;15.60;99.90
47336;DHT22;33068;51.990;5.926;2023-04-30T09:14:40;15.80;99.90
47336;DHT22;33068;51.990;5.926;2023-04-30T09:17:07;15.70;99.90
47336;DHT22;33068;51.990;5.926;2023-04-30T09:19:35;16.00;99.90
47336;DHT22;33068;51.990;5.926;2023-04-30T09:22:18;16.20;99.90
47336;DHT22;33068;51.990;5.926;2023-04-30T09:24:48;16.30;99.40
47336;DHT22;33068;51.990;5.926;2023-04-30T09:27:15;16.30;99.90
47336;DHT22;33068;51.990;5.926;2023-04-30T09:29:42;16.10;99.90
47336;DHT22;33068;51.990;5.926;2023-04-30T09:32:11;16.10;99.80
47336;DHT22;33068;51.990;5.926;2023-04-30T09:34:38;16.10;99.70
47336;DHT22;33068;51.990;5.926;2023-04-30T09:37:05;15.80;99.90
47336;DHT22;33068;51.990;5.926;2023-04-30T09:39:36;15.90;99.90
47336;DHT22;33068;51.990;5.926;2023-04-30T09:42:13;16.10;99.70
47336;DHT22;33068;51.990;5.926;2023-04-30T09:44:39;16.40;99.90
47336;DHT22;33068;51.990;5.926;2023-04-30T09:47:10;16.40;99.90
47336;DHT22;33068;51.990;5.926;2023-04-30T09:49:38;16.10;99.30
47336;DHT22;33068;51.990;5.926;2023-04-30T09:52:06;16.10;99.90
47336;DHT22;33068;51.990;5.926;2023-04-30T09:54:33;16.10;99.90
47336;DHT22;33068;51.990;5.926;2023-04-30T09:57:01;16.10;99.90
47336;DHT22;33068;51.990;5.926;2023-04-30T09:59:30;16.50;99.60
47336;DHT22;33068;51.990;5.926;2023-04-30T10:01:59;16.50;98.20
47336;DHT22;33068;51.990;5.926;2023-04-30T10:04:27;16.90;98.20
47336;DHT22;33068;51.990;5.926;2023-04-30T10:06:54;16.70;98.90
47336;DHT22;33068;51.990;5.926;2023-04-30T10:09:23;16.60;99.40
47336;DHT22;33068;51.990;5.926;2023-04-30T10:11:51;16.90;97.90
47336;DHT22;33068;51.990;5.926;2023-04-30T10:14:19;17.10;96.50
47336;DHT22;33068;51.990;5.926;2023-04-30T10:16:50;17.20;97.10
47336;DHT22;33068;51.990;5.926;2023-04-30T10:19:19;17.40;96.50
47336;DHT22;33068;51.990;5.926;2023-04-30T10:21:48;17.30;95.90
47336;DHT22;33068;51.990;5.926;2023-04-30T10:24:16;17.20;94.90
47336;DHT22;33068;51.990;5.926;2023-04-30T10:26:44;17.00;96.20
47336;DHT22;33068;51.990;5.926;2023-04-30T10:29:12;17.10;96.40
47336;DHT22;33068;51.990;5.926;2023-04-30T10:31:39;17.20;96.40
47336;DHT22;33068;51.990;5.926;2023-04-30T10:34:11;17.40;95.40
47336;DHT22;33068;51.990;5.926;2023-04-30T10:36:41;17.50;95.70
47336;DHT22;33068;51.990;5.926;2023-04-30T10:39:09;17.40;95.50
47336;DHT22;33068;51.990;5.926;2023-04-30T10:41:37;17.40;96.00
47336;DHT22;33068;51.990;5.926;2023-04-30T10:44:04;17.50;96.40
47336;DHT22;33068;51.990;5.926;2023-04-30T10:46:33;17.70;95.60
47336;DHT22;33068;51.990;5.926;2023-04-30T10:49:00;17.50;95.90
47336;DHT22;33068;51.990;5.926;2023-04-30T10:51:47;17.30;96.60
47336;DHT22;33068;51.990;5.926;2023-04-30T10:54:16;17.20;95.80
47336;DHT22;33068;51.990;5.926;2023-04-30T10:56:49;17.50;95.20
47336;DHT22;33068;51.990;5.926;2023-04-30T10:59:17;17.50;95.80
47336;DHT22;33068;51.990;5.926;2023-04-30T11:01:54;17.60;95.40
47336;DHT22;33068;51.990;5.926;2023-04-30T11:04:22;17.40;95.70
47336;DHT22;33068;51.990;5.926;2023-04-30T11:07:00;17.60;95.40
47336;DHT22;33068;51.990;5.926;2023-04-30T11:09:34;17.70;96.40
47336;DHT22;33068;51.990;5.926;2023-04-30T11:12:03;17.60;96.20
47336;DHT22;33068;51.990;5.926;2023-04-30T11:14:31;17.50;96.10
47336;DHT22;33068;51.990;5.926;2023-04-30T11:16:59;17.40;97.10
47336;DHT22;33068;51.990;5.926;2023-04-30T11:19:27;17.50;97.40
47336;DHT22;33068;51.990;5.926;2023-04-30T11:24:51;17.10;96.90
47336;DHT22;33068;51.990;5.926;2023-04-30T11:27:19;17.20;96.30
47336;DHT22;33068;51.990;5.926;2023-04-30T11:29:46;17.40;96.40
47336;DHT22;33068;51.990;5.926;2023-04-30T11:32:13;17.70;97.00
47336;DHT22;33068;51.990;5.926;2023-04-30T11:34:41;17.80;95.70
47336;DHT22;33068;51.990;5.926;2023-04-30T11:37:11;18.00;95.50
47336;DHT22;33068;51.990;5.926;2023-04-30T11:39:39;18.10;95.60
47336;DHT22;33068;51.990;5.926;2023-04-30T11:42:08;18.10;96.00
47336;DHT22;33068;51.990;5.926;2023-04-30T11:44:36;18.30;95.90
47336;DHT22;33068;51.990;5.926;2023-04-30T11:47:04;18.30;96.10
47336;DHT22;33068;51.990;5.926;2023-04-30T11:49:31;18.30;94.80
47336;DHT22;33068;51.990;5.926;2023-04-30T11:51:58;18.40;95.40
47336;DHT22;33068;51.990;5.926;2023-04-30T11:54:26;18.50;94.80
47336;DHT22;33068;51.990;5.926;2023-04-30T11:56:52;18.40;94.40
47336;DHT22;33068;51.990;5.926;2023-04-30T11:59:26;18.30;95.50
47336;DHT22;33068;51.990;5.926;2023-04-30T12:01:53;18.10;95.40
47336;DHT22;33068;51.990;5.926;2023-04-30T12:04:20;18.30;94.20
47336;DHT22;33068;51.990;5.926;2023-04-30T12:06:48;18.40;95.40
47336;DHT22;33068;51.990;5.926;2023-04-30T12:09:15;18.40;94.90
47336;DHT22;33068;51.990;5.926;2023-04-30T12:11:41;18.40;94.40
47336;DHT22;33068;51.990;5.926;2023-04-30T12:14:11;18.60;96.30
47336;DHT22;33068;51.990;5.926;2023-04-30T12:16:41;18.90;94.80
47336;DHT22;33068;51.990;5.926;2023-04-30T12:19:08;19.00;94.30
47336;DHT22;33068;51.990;5.926;2023-04-30T12:21:35;19.30;94.90
47336;DHT22;33068;51.990;5.926;2023-04-30T12:24:03;19.40;93.70
47336;DHT22;33068;51.990;5.926;2023-04-30T12:26:33;19.20;93.30
47336;DHT22;33068;51.990;5.926;2023-04-30T12:29:02;19.50;93.20
47336;DHT22;33068;51.990;5.926;2023-04-30T12:31:30;19.20;93.90
47336;DHT22;33068;51.990;5.926;2023-04-30T12:34:02;19.20;93.50
47336;DHT22;33068;51.990;5.926;2023-04-30T12:36:30;19.30;93.50
47336;DHT22;33068;51.990;5.926;2023-04-30T12:39:02;19.30;93.50
47336;DHT22;33068;51.990;5.926;2023-04-30T12:41:34;19.30;93.00
47336;DHT22;33068;51.990;5.926;2023-04-30T12:44:17;19.50;92.50
47336;DHT22;33068;51.990;5.926;2023-04-30T12:46:44;19.40;92.70
47336;DHT22;33068;51.990;5.926;2023-04-30T12:49:22;19.40;92.20
47336;DHT22;33068;51.990;5.926;2023-04-30T12:51:50;19.50;92.70
47336;DHT22;33068;51.990;5.926;2023-04-30T12:54:23;19.60;91.90
47336;DHT22;33068;51.990;5.926;2023-04-30T12:56:57;19.50;92.40
47336;DHT22;33068;51.990;5.926;2023-04-30T12:59:24;19.90;92.30
47336;DHT22;33068;51.990;5.926;2023-04-30T13:01:51;20.30;91.10
47336;DHT22;33068;51.990;5.926;2023-04-30T13:04:19;20.40;91.80
47336;DHT22;33068;51.990;5.926;2023-04-30T13:06:47;20.40;90.20
47336;DHT22;33068;51.990;5.926;2023-04-30T13:09:14;20.40;89.90
47336;DHT22;33068;51.990;5.926;2023-04-30T13:11:40;20.50;90.20
47336;DHT22;33068;51.990;5.926;2023-04-30T13:14:07;20.60;90.30
47336;DHT22;33068;51.990;5.926;2023-04-30T13:16:35;20.20;86.30
47336;DHT22;33068;51.990;5.926;2023-04-30T13:19:02;20.40;86.30
47336;DHT22;33068;51.990;5.926;2023-04-30T13:21:29;20.50;86.80
47336;DHT22;33068;51.990;5.926;2023-04-30T13:23:58;20.30;90.00
47336;DHT22;33068;51.990;5.926;2023-04-30T13:26:26;20.10;88.80
47336;DHT22;33068;51.990;5.926;2023-04-30T13:28:53;20.70;86.00
47336;DHT22;33068;51.990;5.926;2023-04-30T13:31:20;20.80;87.90
47336;DHT22;33068;51.990;5.926;2023-04-30T13:33:46;20.60;87.30
47336;DHT22;33068;51.990;5.926;2023-04-30T13:36:14;20.40;89.10
47336;DHT22;33068;51.990;5.926;2023-04-30T13:38:41;20.20;90.40
47336;DHT22;33068;51.990;5.926;2023-04-30T13:41:09;20.50;89.70
47336;DHT22;33068;51.990;5.926;2023-04-30T13:43:36;20.80;88.70
47336;DHT22;33068;51.990;5.926;2023-04-30T13:46:03;20.60;88.30
47336;DHT22;33068;51.990;5.926;2023-04-30T13:48:30;20.60;89.90
47336;DHT22;33068;51.990;5.926;2023-04-30T13:50:57;21.00;88.60
47336;DHT22;33068;51.990;5.926;2023-04-30T13:53:24;20.90;90.00
47336;DHT22;33068;51.990;5.926;2023-04-30T13:55:51;21.20;90.30
47336;DHT22;33068;51.990;5.926;2023-04-30T13:58:19;21.60;86.30
47336;DHT22;33068;51.990;5.926;2023-04-30T14:00:48;21.50;85.90
47336;DHT22;33068;51.990;5.926;2023-04-30T14:03:17;21.60;86.90
47336;DHT22;33068;51.990;5.926;2023-04-30T14:05:47;21.50;85.50
47336;DHT22;33068;51.990;5.926;2023-04-30T14:08:20;21.40;88.80
47336;DHT22;33068;51.990;5.926;2023-04-30T14:10:47;21.70;83.90
47336;DHT22;33068;51.990;5.926;2023-04-30T14:13:14;21.60;83.30
47336;DHT22;33068;51.990;5.926;2023-04-30T14:15:42;21.90;85.00
47336;DHT22;33068;51.990;5.926;2023-04-30T14:18:09;22.20;83.30
47336;DHT22;33068;51.990;5.926;2023-04-30T14:20:36;22.30;85.70
47336;DHT22;33068;51.990;5.926;2023-04-30T14:23:04;22.80;84.80
47336;DHT22;33068;51.990;5.926;2023-04-30T14:25:31;22.80;81.90
47336;DHT22;33068;51.990;5.926;2023-04-30T14:27:58;22.70;82.10
47336;DHT22;33068;51.990;5.926;2023-04-30T14:30:24;22.20;82.20
47336;DHT22;33068;51.990;5.926;2023-04-30T14:32:53;22.30;81.60
47336;DHT22;33068;51.990;5.926;2023-04-30T14:35:20;22.40;85.30
47336;DHT22;33068;51.990;5.926;2023-04-30T14:37:47;22.20;83.00
47336;DHT22;33068;51.990;5.926;2023-04-30T14:40:13;22.00;82.40
47336;DHT22;33068;51.990;5.926;2023-04-30T14:42:40;21.70;82.80
47336;DHT22;33068;51.990;5.926;2023-04-30T14:45:08;21.60;85.60
47336;DHT22;33068;51.990;5.926;2023-04-30T14:47:35;21.70;82.10
47336;DHT22;33068;51.990;5.926;2023-04-30T14:50:03;21.80;84.30
47336;DHT22;33068;51.990;5.926;2023-04-30T14:52:30;21.80;81.30
47336;DHT22;33068;51.990;5.926;2023-04-30T14:54:57;21.70;82.10
47336;DHT22;33068;51.990;5.926;2023-04-30T14:57:24;21.60;82.90
47336;DHT22;33068;51.990;5.926;2023-04-30T14:59:52;21.70;81.80
47336;DHT22;33068;51.990;5.926;2023-04-30T15:02:22;21.90;81.40
47336;DHT22;33068;51.990;5.926;2023-04-30T15:04:48;22.00;81.90
47336;DHT22;33068;51.990;5.926;2023-04-30T15:07:17;22.50;80.70
47336;DHT22;33068;51.990;5.926;2023-04-30T15:09:44;23.00;79.00
47336;DHT22;33068;51.990;5.926;2023-04-30T15:12:11;22.90;78.60
47336;DHT22;33068;51.990;5.926;2023-04-30T15:14:38;22.60;79.10
47336;DHT22;33068;51.990;5.926;2023-04-30T15:17:05;22.30;78.70
47336;DHT22;33068;51.990;5.926;2023-04-30T15:19:32;22.50;78.40
47336;DHT22;33068;51.990;5.926;2023-04-30T15:21:59;21.70;77.40
47336;DHT22;33068;51.990;5.926;2023-04-30T15:24:27;21.50;78.60
47336;DHT22;33068;51.990;5.926;2023-04-30T15:26:54;21.10;78.80
47336;DHT22;33068;51.990;5.926;2023-04-30T15:29:21;21.00;79.30
47336;DHT22;33068;51.990;5.926;2023-04-30T15:31:49;21.30;80.00
47336;DHT22;33068;51.990;5.926;2023-04-30T15:34:19;21.40;79.00
47336;DHT22;33068;51.990;5.926;2023-04-30T15:36:46;21.50;80.60
47336;DHT22;33068;51.990;5.926;2023-04-30T15:39:13;21.60;79.30
47336;DHT22;33068;51.990;5.926;2023-04-30T15:41:41;22.10;82.40
47336;DHT22;33068;51.990;5.926;2023-04-30T15:44:09;22.20;78.30
47336;DHT22;33068;51.990;5.926;2023-04-30T15:46:35;22.00;79.90
47336;DHT22;33068;51.990;5.926;2023-04-30T15:49:02;22.10;79.00